Time;durP1;ratioP1;P1;durP2;ratioP2;P2;SDS_P1;SDS_P2;PMS_P1;PMS_P2;Temp;Humidity;BMP_temperature;BMP_pressure;BME280_temperature;BME280_humidity;BME280_pressure;Samples;Min_cycle;Max_cycle;Signal;HPM_P1;HPM_P2
2022/04/06 00:01:58;;;;;;;31.63;7.13;;;10.10;99.90;;;;;;5063394;28;38217;-77
2022/04/06 00:04:24;;;;;;;26.17;7.90;;;10.10;99.90;;;;;;5054833;28;38178;-76
2022/04/06 00:06:53;;;;;;;30.77;7.77;;;10.10;99.90;;;;;;5059133;28;36941;-76
2022/04/06 00:09:20;;;;;;;29.20;7.33;;;10.10;99.90;;;;;;5056259;28;37890;-77
2022/04/06 00:11:46;;;;;;;25.77;7.37;;;10.10;99.90;;;;;;5056423;28;39839;-77
2022/04/06 00:14:13;;;;;;;26.70;7.23;;;10.20;99.90;;;;;;5060740;28;39866;-77
2022/04/06 00:16:39;;;;;;;33.70;8.23;;;10.10;99.90;;;;;;5056988;28;39703;-77
2022/04/06 00:19:05;;;;;;;31.13;7.47;;;10.10;99.90;;;;;;5061689;28;38011;-76
2022/04/06 00:21:31;;;;;;;23.53;6.40;;;10.10;99.90;;;;;;5060468;28;38628;-76
2022/04/06 00:23:58;;;;;;;34.40;6.93;;;10.10;99.90;;;;;;5049995;27;40233;-76
2022/04/06 00:26:25;;;;;;;28.13;6.13;;;10.10;99.90;;;;;;5053551;28;37947;-76
2022/04/06 00:28:51;;;;;;;30.80;6.23;;;10.10;99.90;;;;;;5069132;28;36168;-76
2022/04/06 00:31:17;;;;;;;30.63;6.33;;;10.00;99.90;;;;;;5047766;28;38863;-76
2022/04/06 00:33:43;;;;;;;19.87;5.57;;;10.00;99.90;;;;;;5057609;28;37229;-77
2022/04/06 00:36:09;;;;;;;26.23;6.27;;;10.10;99.90;;;;;;5060826;28;38719;-76
2022/04/06 00:38:35;;;;;;;31.57;6.43;;;10.00;99.90;;;;;;5061096;28;35139;-76
2022/04/06 00:41:02;;;;;;;29.80;6.83;;;10.00;99.90;;;;;;5059924;28;39493;-76
2022/04/06 00:43:28;;;;;;;29.33;6.93;;;9.90;99.90;;;;;;5058807;28;39512;-76
2022/04/06 00:45:54;;;;;;;30.47;7.27;;;9.90;99.90;;;;;;5062629;28;38314;-76
2022/04/06 00:48:20;;;;;;;25.93;6.77;;;9.90;99.90;;;;;;5058464;28;38396;-76
2022/04/06 00:50:50;;;;;;;26.20;5.83;;;9.90;99.90;;;;;;5064769;28;39665;-76
2022/04/06 00:53:16;;;;;;;31.60;5.80;;;9.90;99.90;;;;;;5059134;27;38489;-76
2022/04/06 00:55:42;;;;;;;24.67;5.97;;;9.90;99.90;;;;;;5059424;28;38487;-76
2022/04/06 00:58:08;;;;;;;28.10;5.97;;;9.90;99.90;;;;;;5055897;28;37366;-76
2022/04/06 01:00:35;;;;;;;30.50;6.20;;;9.90;99.90;;;;;;5059406;28;39712;-76
2022/04/06 01:03:02;;;;;;;21.87;5.90;;;9.90;99.90;;;;;;5060324;28;39378;-75
2022/04/06 01:05:28;;;;;;;21.73;5.07;;;9.90;99.90;;;;;;5055498;28;40338;-76
2022/04/06 01:07:56;;;;;;;26.67;5.70;;;9.90;99.90;;;;;;5061812;28;36868;-76
2022/04/06 01:10:22;;;;;;;19.27;4.80;;;9.80;99.90;;;;;;5061142;28;40032;-77
2022/04/06 01:12:49;;;;;;;24.07;5.10;;;9.90;99.90;;;;;;5058827;28;38618;-76
2022/04/06 01:15:16;;;;;;;19.60;5.07;;;9.80;99.90;;;;;;5060011;28;38959;-76
2022/04/06 01:17:43;;;;;;;31.00;5.37;;;9.80;99.90;;;;;;5060708;28;37639;-76
2022/04/06 01:20:11;;;;;;;29.10;5.97;;;9.80;99.90;;;;;;5060949;28;39714;-76
2022/04/06 01:22:38;;;;;;;23.83;4.90;;;9.80;99.90;;;;;;5062024;28;39103;-76
2022/04/06 01:25:06;;;;;;;20.93;5.33;;;9.80;99.90;;;;;;5063672;28;39175;-76
2022/04/06 01:27:32;;;;;;;24.17;4.20;;;9.80;99.90;;;;;;5058738;28;36902;-76
2022/04/06 01:29:58;;;;;;;21.30;4.00;;;9.80;99.90;;;;;;5059621;28;39689;-77
2022/04/06 01:32:32;;;;;;;19.73;4.23;;;9.80;99.90;;;;;;5060141;27;38373;-76
2022/04/06 01:34:59;;;;;;;12.90;3.73;;;9.80;99.90;;;;;;5060056;28;40090;-76
2022/04/06 01:37:25;;;;;;;17.87;4.23;;;9.80;99.90;;;;;;5059149;28;37871;-76
2022/04/06 01:39:51;;;;;;;18.07;4.03;;;9.80;99.90;;;;;;5060462;28;39836;-76
2022/04/06 01:42:19;;;;;;;18.93;3.63;;;9.80;99.90;;;;;;5061679;28;39484;-76
2022/04/06 01:44:47;;;;;;;19.60;3.67;;;9.80;99.90;;;;;;5040593;28;38877;-76
2022/04/06 01:47:15;;;;;;;19.17;4.40;;;9.70;99.90;;;;;;5054346;28;38621;-76
2022/04/06 01:52:26;;;;;;;13.57;3.70;;;9.70;99.90;;;;;;5053855;28;41061;-76
2022/04/06 01:55:02;;;;;;;20.00;3.70;;;9.70;99.90;;;;;;5054369;28;38364;-76
2022/04/06 01:57:29;;;;;;;12.43;3.30;;;9.70;99.90;;;;;;5051886;28;49074;-76
2022/04/06 01:59:56;;;;;;;16.50;3.47;;;9.70;99.90;;;;;;5054512;28;39972;-76
2022/04/06 02:02:25;;;;;;;18.87;4.00;;;9.70;99.90;;;;;;5060919;28;38553;-76
2022/04/06 02:04:51;;;;;;;13.97;3.27;;;9.70;99.90;;;;;;5054401;28;38397;-76
2022/04/06 02:07:18;;;;;;;15.40;3.13;;;9.70;99.90;;;;;;5056770;28;37936;-76
2022/04/06 02:09:44;;;;;;;14.80;3.30;;;9.60;99.90;;;;;;5053582;28;40780;-76
2022/04/06 02:12:11;;;;;;;19.77;3.53;;;9.60;99.90;;;;;;5050325;28;39641;-76
2022/04/06 02:14:41;;;;;;;17.10;2.90;;;9.60;99.90;;;;;;5051142;28;37748;-76
2022/04/06 02:17:08;;;;;;;14.63;2.93;;;9.70;99.90;;;;;;5046438;27;36901;-76
2022/04/06 02:19:38;;;;;;;17.77;3.03;;;9.70;99.90;;;;;;5030400;28;39788;-76
2022/04/06 02:22:06;;;;;;;18.70;3.43;;;9.70;99.90;;;;;;5045647;28;39142;-75
2022/04/06 02:24:33;;;;;;;11.83;2.87;;;9.60;99.90;;;;;;5053132;28;39678;-76
2022/04/06 02:26:59;;;;;;;12.00;2.50;;;9.60;99.90;;;;;;5049572;28;38825;-76
2022/04/06 02:29:26;;;;;;;10.67;2.80;;;9.50;99.90;;;;;;5062955;28;39037;-75
2022/04/06 02:31:52;;;;;;;13.27;2.87;;;9.40;99.90;;;;;;5049835;28;38543;-76
2022/04/06 02:34:18;;;;;;;15.00;3.27;;;9.40;99.90;;;;;;5043276;27;37906;-76
2022/04/06 02:36:45;;;;;;;11.60;2.37;;;9.30;99.90;;;;;;5047577;28;37193;-75
2022/04/06 02:39:11;;;;;;;17.70;3.47;;;9.20;99.90;;;;;;5044741;27;38300;-75
2022/04/06 02:41:37;;;;;;;12.97;2.87;;;9.20;99.90;;;;;;5049469;28;38856;-76
2022/04/06 02:44:03;;;;;;;10.30;2.60;;;9.10;99.90;;;;;;5054250;28;38187;-75
2022/04/06 02:46:30;;;;;;;16.13;2.73;;;9.20;99.90;;;;;;5053499;28;37510;-76
2022/04/06 02:48:57;;;;;;;14.07;2.20;;;9.10;99.90;;;;;;5048209;28;39371;-76
2022/04/06 02:51:23;;;;;;;10.60;3.03;;;9.10;99.90;;;;;;5048293;28;37752;-76
2022/04/06 02:53:50;;;;;;;12.87;2.43;;;9.00;99.90;;;;;;5070197;28;37176;-75
2022/04/06 02:56:16;;;;;;;14.97;2.30;;;9.10;99.90;;;;;;5053266;28;39027;-77
2022/04/06 02:58:42;;;;;;;13.67;2.17;;;9.00;99.90;;;;;;5053553;28;40444;-78
2022/04/06 03:01:08;;;;;;;16.27;2.43;;;9.00;99.90;;;;;;5059199;28;39096;-75
2022/04/06 03:03:34;;;;;;;9.50;2.37;;;9.00;99.90;;;;;;5051174;28;38301;-77
2022/04/06 03:06:02;;;;;;;17.40;2.87;;;9.00;99.90;;;;;;5053805;28;37520;-77
2022/04/06 03:08:29;;;;;;;12.93;2.17;;;9.00;99.90;;;;;;5056867;28;47104;-77
2022/04/06 03:10:55;;;;;;;14.97;2.47;;;9.00;99.90;;;;;;5083059;28;39449;-77
2022/04/06 03:13:21;;;;;;;17.07;2.63;;;9.10;99.90;;;;;;5057311;28;38597;-77
2022/04/06 03:15:47;;;;;;;27.30;3.33;;;9.20;99.90;;;;;;5056977;28;37611;-77
2022/04/06 03:18:13;;;;;;;17.87;2.57;;;9.30;99.90;;;;;;5057186;28;40218;-75
2022/04/06 03:20:39;;;;;;;20.40;4.00;;;9.30;99.90;;;;;;5058010;28;38488;-74
2022/04/06 03:23:05;;;;;;;18.13;2.60;;;9.30;99.90;;;;;;5057854;28;38131;-77
2022/04/06 03:25:31;;;;;;;15.07;2.83;;;9.30;99.90;;;;;;5056909;28;37146;-77
2022/04/06 03:27:57;;;;;;;23.00;3.37;;;9.40;99.90;;;;;;5060504;27;39258;-77
2022/04/06 03:30:23;;;;;;;21.40;3.10;;;9.40;99.90;;;;;;5079683;28;39735;-77
2022/04/06 03:32:49;;;;;;;21.30;4.00;;;9.50;99.90;;;;;;5059793;28;37832;-74
2022/04/06 03:35:16;;;;;;;22.53;3.40;;;9.50;99.90;;;;;;5061364;28;37639;-77
2022/04/06 03:37:42;;;;;;;23.07;4.63;;;9.50;99.90;;;;;;5058923;28;38936;-77
2022/04/06 03:40:08;;;;;;;29.10;4.53;;;9.50;99.90;;;;;;5048800;28;36856;-76
2022/04/06 03:42:35;;;;;;;18.03;3.70;;;9.50;99.90;;;;;;5055871;28;37828;-77
2022/04/06 03:45:01;;;;;;;17.10;3.47;;;9.50;99.90;;;;;;5052711;28;37121;-77
2022/04/06 03:47:32;;;;;;;20.43;3.50;;;9.50;99.90;;;;;;5056398;28;38911;-77
2022/04/06 03:49:59;;;;;;;27.07;4.30;;;9.50;99.90;;;;;;5054288;28;38565;-77
2022/04/06 03:52:26;;;;;;;12.80;3.03;;;9.50;99.90;;;;;;5055600;28;38283;-77
2022/04/06 03:54:53;;;;;;;14.47;3.27;;;9.50;99.90;;;;;;5057087;28;37152;-77
2022/04/06 03:57:19;;;;;;;19.30;3.40;;;9.50;99.90;;;;;;5059831;28;40667;-77
2022/04/06 03:59:45;;;;;;;18.17;3.67;;;9.50;99.90;;;;;;5071925;28;37959;-77
2022/04/06 04:02:12;;;;;;;20.63;3.87;;;9.60;99.90;;;;;;5059526;28;38580;-77
2022/04/06 04:04:38;;;;;;;15.30;2.87;;;9.60;99.90;;;;;;5060610;28;35336;-77
2022/04/06 04:07:07;;;;;;;15.60;2.90;;;9.60;99.90;;;;;;5061783;28;39064;-76
2022/04/06 04:09:34;;;;;;;15.90;3.07;;;9.60;99.90;;;;;;5059870;28;40344;-77
2022/04/06 04:12:00;;;;;;;14.13;3.17;;;9.60;99.90;;;;;;5056072;28;39102;-76
2022/04/06 04:14:26;;;;;;;15.33;3.07;;;9.60;99.90;;;;;;5050432;28;38264;-77
2022/04/06 04:16:53;;;;;;;15.10;3.37;;;9.60;99.90;;;;;;5057135;28;41228;-77
2022/04/06 04:19:19;;;;;;;16.77;3.10;;;9.60;99.90;;;;;;5055828;28;38362;-76
2022/04/06 04:21:45;;;;;;;18.70;3.00;;;9.60;99.90;;;;;;5057625;28;38543;-76
2022/04/06 04:24:11;;;;;;;14.57;2.97;;;9.60;99.90;;;;;;5052138;28;37259;-76
2022/04/06 04:26:38;;;;;;;22.37;4.17;;;9.60;99.90;;;;;;5065268;28;39616;-76
2022/04/06 04:29:05;;;;;;;17.53;3.53;;;9.60;99.90;;;;;;5046398;28;38665;-76
2022/04/06 04:31:31;;;;;;;14.07;3.33;;;9.60;99.90;;;;;;5056447;28;50105;-76
2022/04/06 04:34:21;;;;;;;21.37;3.33;;;9.60;99.90;;;;;;5067089;27;20456;-76
2022/04/06 04:36:47;;;;;;;18.77;4.20;;;9.60;99.90;;;;;;5051737;28;37584;-76
2022/04/06 04:39:13;;;;;;;19.43;3.13;;;9.60;99.90;;;;;;5061170;28;37653;-76
2022/04/06 04:41:39;;;;;;;13.93;3.43;;;9.60;99.90;;;;;;5059799;28;39430;-76
2022/04/06 04:44:05;;;;;;;19.10;3.93;;;9.60;99.90;;;;;;5064105;28;38599;-77
2022/04/06 04:46:32;;;;;;;17.27;3.93;;;9.50;99.90;;;;;;5084124;27;38626;-76
2022/04/06 04:48:58;;;;;;;16.77;3.73;;;9.50;99.90;;;;;;5075523;27;36954;-76
2022/04/06 04:51:24;;;;;;;21.07;3.70;;;9.60;99.90;;;;;;5074120;28;39333;-76
2022/04/06 04:53:50;;;;;;;15.50;3.53;;;9.50;99.90;;;;;;5072718;27;38159;-76
2022/04/06 04:56:16;;;;;;;12.83;4.10;;;9.50;99.90;;;;;;5074446;27;37743;-76
2022/04/06 04:58:42;;;;;;;14.73;3.40;;;9.50;99.90;;;;;;5076890;27;36908;-76
2022/04/06 05:01:09;;;;;;;17.50;3.73;;;9.50;99.90;;;;;;5080151;28;41553;-75
2022/04/06 05:03:35;;;;;;;16.93;3.10;;;9.50;99.90;;;;;;5079826;28;36138;-76
2022/04/06 05:06:01;;;;;;;15.33;2.90;;;9.50;99.90;;;;;;5073017;27;39279;-75
2022/04/06 05:08:27;;;;;;;23.40;4.27;;;9.50;99.90;;;;;;5080081;27;36159;-76
2022/04/06 05:10:53;;;;;;;17.27;3.80;;;9.50;99.90;;;;;;5073805;28;37341;-76
2022/04/06 05:13:20;;;;;;;17.80;2.57;;;9.50;99.90;;;;;;5087849;27;39370;-76
2022/04/06 05:15:47;;;;;;;17.60;3.03;;;9.50;99.90;;;;;;5079317;28;38006;-75
2022/04/06 05:18:13;;;;;;;16.97;2.80;;;9.60;99.90;;;;;;5073954;28;37638;-76
2022/04/06 05:20:39;;;;;;;15.83;3.40;;;9.60;99.90;;;;;;5071945;28;36984;-76
2022/04/06 05:23:05;;;;;;;19.87;3.47;;;9.60;99.90;;;;;;5073168;27;39061;-77
2022/04/06 05:25:32;;;;;;;13.67;2.63;;;9.60;99.90;;;;;;5071101;28;37846;-77
2022/04/06 05:27:58;;;;;;;14.57;3.43;;;9.60;99.90;;;;;;5079858;27;36823;-76
2022/04/06 05:30:25;;;;;;;15.57;2.63;;;9.60;99.90;;;;;;5077159;27;38022;-76
2022/04/06 05:32:54;;;;;;;10.17;2.37;;;9.70;99.90;;;;;;5068166;27;38248;-76
2022/04/06 05:35:20;;;;;;;16.67;3.43;;;9.70;99.90;;;;;;5063170;28;37935;-76
2022/04/06 05:37:46;;;;;;;15.70;2.47;;;9.70;99.90;;;;;;5075129;27;36921;-76
2022/04/06 05:40:14;;;;;;;16.53;2.90;;;9.70;99.90;;;;;;5067589;27;38916;-76
2022/04/06 05:42:41;;;;;;;9.27;2.17;;;9.70;99.90;;;;;;5061243;27;38435;-77
2022/04/06 05:45:09;;;;;;;14.70;2.13;;;9.70;99.90;;;;;;5050328;28;35900;-77
2022/04/06 05:47:36;;;;;;;8.30;2.03;;;9.80;99.90;;;;;;5065373;27;36238;-77
2022/04/06 05:50:05;;;;;;;9.93;1.90;;;9.80;99.90;;;;;;5070973;28;39233;-77
2022/04/06 05:52:31;;;;;;;15.07;3.47;;;9.80;99.90;;;;;;5065023;28;40053;-77
2022/04/06 05:54:57;;;;;;;10.53;2.47;;;9.70;99.90;;;;;;5050737;28;38223;-78
2022/04/06 05:57:23;;;;;;;9.70;1.60;;;9.80;99.90;;;;;;5067296;28;37378;-77
2022/04/06 05:59:50;;;;;;;9.27;1.73;;;9.80;99.90;;;;;;5055148;28;39523;-77
2022/04/06 06:02:16;;;;;;;13.93;2.33;;;9.80;99.90;;;;;;5083643;28;38960;-78
2022/04/06 06:04:42;;;;;;;14.93;2.87;;;9.90;99.90;;;;;;5066433;28;37800;-77
2022/04/06 06:07:08;;;;;;;12.33;1.67;;;9.80;99.90;;;;;;5067890;28;36844;-77
2022/04/06 06:09:35;;;;;;;10.80;1.90;;;9.90;99.90;;;;;;5060216;28;39742;-77
2022/04/06 06:12:02;;;;;;;10.93;2.20;;;9.90;99.90;;;;;;5030350;28;39200;-76
2022/04/06 06:14:28;;;;;;;16.00;2.07;;;9.90;99.90;;;;;;5041263;28;38255;-77
2022/04/06 06:16:55;;;;;;;13.23;1.90;;;9.90;99.90;;;;;;5044746;28;36484;-77
2022/04/06 06:19:21;;;;;;;11.57;2.20;;;9.90;99.90;;;;;;5040314;28;38497;-77
2022/04/06 06:21:47;;;;;;;10.73;2.50;;;10.00;99.90;;;;;;5062737;28;38460;-78
2022/04/06 06:24:14;;;;;;;9.20;2.00;;;10.00;99.90;;;;;;5040864;28;37271;-76
2022/04/06 06:26:42;;;;;;;17.00;3.43;;;10.00;99.90;;;;;;5039660;28;36138;-77
2022/04/06 06:29:08;;;;;;;15.83;2.50;;;10.00;99.90;;;;;;5051626;28;38551;-77
2022/04/06 06:31:35;;;;;;;11.57;2.53;;;10.00;99.90;;;;;;5056067;28;39197;-77
2022/04/06 06:34:01;;;;;;;18.43;4.07;;;10.10;99.90;;;;;;5043224;28;37596;-78
2022/04/06 06:36:28;;;;;;;18.53;2.73;;;10.10;99.90;;;;;;5045001;28;37408;-77
2022/04/06 06:38:55;;;;;;;13.15;2.67;;;10.10;99.90;;;;;;5042595;28;37519;-77
2022/04/06 06:41:22;;;;;;;14.07;2.93;;;10.10;99.90;;;;;;5041171;28;36188;-77
2022/04/06 06:43:49;;;;;;;15.33;2.47;;;10.10;99.90;;;;;;5073591;28;37210;-77
2022/04/06 06:46:17;;;;;;;13.10;2.40;;;10.20;99.90;;;;;;5039253;28;37134;-77
2022/04/06 06:48:43;;;;;;;14.13;2.63;;;10.20;99.90;;;;;;5040750;28;37960;-77
2022/04/06 06:51:09;;;;;;;14.87;2.30;;;10.20;99.90;;;;;;5047713;28;39046;-76
2022/04/06 06:53:35;;;;;;;14.67;3.00;;;10.20;99.90;;;;;;5044085;28;36532;-77
2022/04/06 06:56:01;;;;;;;13.80;2.43;;;10.20;99.90;;;;;;5041193;28;38050;-76
2022/04/06 06:58:27;;;;;;;14.27;2.90;;;10.30;99.90;;;;;;5043019;28;39126;-77
2022/04/06 07:00:53;;;;;;;17.07;2.93;;;10.20;99.90;;;;;;5043452;28;37427;-77
2022/04/06 07:03:19;;;;;;;14.80;3.27;;;10.10;99.90;;;;;;5040344;28;37557;-77
2022/04/06 07:05:45;;;;;;;18.07;3.53;;;10.00;99.90;;;;;;5073534;28;37696;-77
2022/04/06 07:08:11;;;;;;;21.93;3.10;;;9.80;99.90;;;;;;5045044;28;38887;-77
2022/04/06 07:10:37;;;;;;;17.03;2.70;;;9.70;99.90;;;;;;5040953;28;39305;-77
2022/04/06 07:13:04;;;;;;;18.57;3.60;;;9.70;99.90;;;;;;5041956;28;38364;-77
2022/04/06 07:15:31;;;;;;;11.57;2.60;;;9.70;99.90;;;;;;5079968;28;37442;-77
2022/04/06 07:17:58;;;;;;;23.60;2.90;;;9.70;99.90;;;;;;5040680;28;38597;-77
2022/04/06 07:20:26;;;;;;;17.63;3.10;;;9.70;99.90;;;;;;5038892;28;38591;-77
2022/04/06 07:22:52;;;;;;;18.90;2.80;;;9.70;99.90;;;;;;5075546;28;36466;-77
2022/04/06 07:25:19;;;;;;;22.67;3.47;;;9.70;99.90;;;;;;5040225;28;37339;-77
2022/04/06 07:27:45;;;;;;;16.00;3.93;;;9.70;99.90;;;;;;5043806;28;38641;-77
2022/04/06 07:30:13;;;;;;;19.03;3.23;;;9.60;99.90;;;;;;5045329;28;38089;-77
2022/04/06 07:32:39;;;;;;;17.43;3.80;;;9.50;99.90;;;;;;5036606;28;37544;-77
2022/04/06 07:35:07;;;;;;;17.60;3.53;;;9.50;99.90;;;;;;5042844;28;35493;-77
2022/04/06 07:37:39;;;;;;;24.73;4.03;;;9.40;99.90;;;;;;5036970;28;39658;-77
2022/04/06 07:40:07;;;;;;;25.00;3.97;;;9.40;99.90;;;;;;5040719;28;38029;-77
2022/04/06 07:42:35;;;;;;;24.70;3.77;;;9.40;99.90;;;;;;5036531;28;38683;-77
2022/04/06 07:45:09;;;;;;;20.30;4.23;;;9.40;99.90;;;;;;5043846;28;37222;-77
2022/04/06 07:47:37;;;;;;;20.30;3.67;;;9.40;99.90;;;;;;5067317;28;47753;-77
2022/04/06 07:50:05;;;;;;;22.87;3.47;;;9.30;99.90;;;;;;5040452;28;37512;-76
2022/04/06 07:52:31;;;;;;;22.83;4.17;;;9.40;99.90;;;;;;5077795;28;36528;-77
2022/04/06 07:54:57;;;;;;;17.67;3.20;;;9.40;99.90;;;;;;5048103;28;38265;-77
2022/04/06 07:57:24;;;;;;;25.37;4.07;;;9.50;99.90;;;;;;5074579;28;38683;-77
2022/04/06 07:59:57;;;;;;;22.00;4.77;;;9.50;99.90;;;;;;5042713;28;39402;-77
2022/04/06 08:02:23;;;;;;;19.70;4.65;;;9.50;99.90;;;;;;5039697;28;36799;-77
2022/04/06 08:04:50;;;;;;;22.07;3.90;;;9.60;99.90;;;;;;5043115;28;38972;-78
2022/04/06 08:07:16;;;;;;;19.00;3.27;;;9.60;99.90;;;;;;5034415;28;39059;-77
2022/04/06 08:09:43;;;;;;;15.73;3.90;;;9.60;99.90;;;;;;5038920;28;38609;-77
2022/04/06 08:12:09;;;;;;;18.67;3.30;;;9.70;99.90;;;;;;5039042;28;38010;-77
2022/04/06 08:14:35;;;;;;;19.87;3.43;;;9.60;99.90;;;;;;5069812;28;36116;-77
2022/04/06 08:17:01;;;;;;;19.73;3.90;;;9.70;99.90;;;;;;5039442;28;38946;-76
2022/04/06 08:19:28;;;;;;;14.90;4.27;;;9.70;99.90;;;;;;5041836;28;38586;-77
2022/04/06 08:21:54;;;;;;;24.97;4.20;;;9.70;99.90;;;;;;5057374;28;36918;-77
2022/04/06 08:24:20;;;;;;;17.13;3.60;;;9.70;99.90;;;;;;5049426;28;37243;-77
2022/04/06 08:26:46;;;;;;;21.67;3.60;;;9.70;99.90;;;;;;5044621;28;40846;-78
2022/04/06 08:29:13;;;;;;;15.90;3.93;;;9.70;99.90;;;;;;5069587;28;37062;-77
2022/04/06 08:31:39;;;;;;;19.07;4.57;;;9.60;99.90;;;;;;5041579;28;38773;-77
2022/04/06 08:34:06;;;;;;;20.43;4.57;;;9.50;99.90;;;;;;5045825;28;37064;-77
2022/04/06 08:36:32;;;;;;;18.47;4.63;;;9.40;99.90;;;;;;5053193;28;39616;-77
2022/04/06 08:39:01;;;;;;;27.13;6.47;;;9.40;99.90;;;;;;5061700;28;39774;-76
2022/04/06 08:41:28;;;;;;;17.07;5.13;;;9.40;99.90;;;;;;5063353;28;48578;-78
2022/04/06 08:43:57;;;;;;;20.27;5.07;;;9.40;99.90;;;;;;5058564;28;37155;-78
2022/04/06 08:46:25;;;;;;;25.97;6.80;;;9.30;99.90;;;;;;5061195;28;39251;-76
2022/04/06 08:48:52;;;;;;;20.23;5.57;;;9.30;99.90;;;;;;5060919;28;38633;-77
2022/04/06 08:51:19;;;;;;;18.63;5.90;;;9.30;99.90;;;;;;5059481;28;38309;-77
2022/04/06 08:53:46;;;;;;;19.67;6.20;;;9.30;99.90;;;;;;5062784;28;36699;-77
2022/04/06 08:56:13;;;;;;;23.90;6.70;;;9.30;99.90;;;;;;5057041;28;39468;-77
2022/04/06 08:58:40;;;;;;;21.57;6.40;;;9.40;99.90;;;;;;5077168;28;38471;-77
2022/04/06 09:01:07;;;;;;;24.60;7.83;;;9.40;99.90;;;;;;5057099;28;38430;-76
2022/04/06 09:03:37;;;;;;;20.03;6.73;;;9.40;99.90;;;;;;5063493;28;36914;-77
2022/04/06 09:06:07;;;;;;;21.70;7.17;;;9.40;99.90;;;;;;5060654;28;39838;-76
2022/04/06 09:08:34;;;;;;;22.73;7.97;;;9.40;99.90;;;;;;5060305;28;37719;-77
2022/04/06 09:11:15;;;;;;;24.83;7.70;;;9.50;99.90;;;;;;5065533;28;38204;-77
2022/04/06 09:13:42;;;;;;;24.00;6.73;;;9.50;99.90;;;;;;5045418;28;49077;-77
2022/04/06 09:16:14;;;;;;;19.17;6.90;;;9.50;99.90;;;;;;5048351;28;38391;-78
2022/04/06 09:18:45;;;;;;;28.45;8.60;;;9.60;99.90;;;;;;5042913;28;39077;-77
2022/04/06 09:21:13;;;;;;;24.70;7.70;;;9.60;99.90;;;;;;5052328;28;37443;-77
2022/04/06 09:23:40;;;;;;;23.67;6.97;;;9.70;99.90;;;;;;5059265;28;38457;-77
2022/04/06 09:26:08;;;;;;;28.80;7.30;;;9.80;99.90;;;;;;5040387;28;39734;-77
2022/04/06 09:28:40;;;;;;;20.03;6.87;;;9.90;99.90;;;;;;5046936;28;38320;-77
2022/04/06 09:31:06;;;;;;;22.23;6.80;;;10.00;99.90;;;;;;5052557;28;37876;-77
2022/04/06 09:33:34;;;;;;;21.97;6.07;;;10.10;99.90;;;;;;5046730;28;38737;-77
2022/04/06 09:36:00;;;;;;;18.53;6.07;;;10.20;99.90;;;;;;5052471;28;38853;-77
2022/04/06 09:38:31;;;;;;;21.08;5.90;;;10.30;99.90;;;;;;5063252;28;49209;-77
2022/04/06 09:41:09;;;;;;;19.65;5.68;;;10.30;99.90;;;;;;5052123;28;37720;-77
2022/04/06 09:43:35;;;;;;;16.45;5.25;;;10.40;99.90;;;;;;5071603;28;47326;-77
2022/04/06 09:49:18;;;;;;;17.45;5.13;;;10.50;99.90;;;;;;5047136;28;40118;-77
2022/04/06 09:51:48;;;;;;;22.25;5.15;;;10.60;99.90;;;;;;5059626;28;36962;-75
2022/04/06 09:54:14;;;;;;;17.30;5.05;;;10.60;99.90;;;;;;5044475;28;37928;-76
2022/04/06 09:56:42;;;;;;;14.15;4.78;;;10.70;99.90;;;;;;5053567;28;39446;-79
2022/04/06 09:59:11;;;;;;;16.17;4.40;;;10.70;99.90;;;;;;5045819;28;36807;-75
2022/04/06 10:01:41;;;;;;;20.48;4.63;;;10.80;99.90;;;;;;5042982;28;37750;-75
2022/04/06 10:04:10;;;;;;;16.40;4.35;;;11.00;99.90;;;;;;5045254;28;37612;-75
2022/04/06 10:06:39;;;;;;;13.63;3.38;;;11.10;99.90;;;;;;5049185;28;39494;-75
2022/04/06 10:09:07;;;;;;;13.50;3.60;;;11.40;99.90;;;;;;5058269;28;38361;-75
2022/04/06 10:11:34;;;;;;;18.75;3.83;;;11.40;99.90;;;;;;5051428;28;39510;-75
2022/04/06 10:14:04;;;;;;;16.88;3.80;;;11.60;99.90;;;;;;5059887;28;37740;-76
2022/04/06 10:16:31;;;;;;;15.45;4.20;;;11.80;99.90;;;;;;5062497;28;47143;-75
2022/04/06 10:18:58;;;;;;;15.52;3.38;;;11.70;99.90;;;;;;5051318;28;38982;-75
2022/04/06 10:21:59;;;;;;;16.00;3.40;;;11.80;99.90;;;;;;5051632;28;38094;-76
2022/04/06 10:24:51;;;;;;;13.35;3.53;;;11.80;99.90;;;;;;5058864;28;39984;-77
2022/04/06 10:27:36;;;;;;;13.85;4.38;;;11.90;99.90;;;;;;5059477;28;37567;-76
2022/04/06 10:30:17;;;;;;;22.77;3.67;;;11.90;99.90;;;;;;5054424;28;38680;-75
2022/04/06 10:32:48;;;;;;;10.82;3.00;;;12.00;99.90;;;;;;5040993;28;39032;-75
2022/04/06 10:35:33;;;;;;;10.07;3.00;;;12.00;99.90;;;;;;5068462;28;38061;-76
2022/04/06 10:38:02;;;;;;;9.93;3.20;;;12.10;99.90;;;;;;5062477;28;38802;-76
2022/04/06 10:40:49;;;;;;;9.55;2.97;;;12.20;99.90;;;;;;5051583;28;48063;-76
2022/04/06 10:43:34;;;;;;;10.85;3.35;;;12.20;99.90;;;;;;5051964;27;38103;-76
2022/04/06 10:46:00;;;;;;;10.63;2.90;;;12.30;99.90;;;;;;5047183;28;37157;-76
2022/04/06 10:48:26;;;;;;;12.00;3.10;;;12.20;99.90;;;;;;5049497;28;40249;-76
2022/04/06 10:50:53;;;;;;;8.23;2.75;;;12.30;99.90;;;;;;5057863;28;37414;-76
2022/04/06 10:53:19;;;;;;;10.27;3.13;;;12.30;99.90;;;;;;5045564;28;38591;-76
2022/04/06 10:56:03;;;;;;;12.90;3.88;;;12.20;99.90;;;;;;5046810;28;37746;-76
2022/04/06 10:58:52;;;;;;;9.23;3.55;;;12.10;99.90;;;;;;5067937;28;48562;-76
2022/04/06 11:01:18;;;;;;;11.95;3.83;;;12.10;99.90;;;;;;5043936;28;38072;-76
2022/04/06 11:03:59;;;;;;;8.57;3.25;;;11.90;99.90;;;;;;5044672;28;38073;-76
2022/04/06 11:06:56;;;;;;;13.40;4.22;;;11.80;99.90;;;;;;5063156;28;36748;-76
2022/04/06 11:12:29;;;;;;;12.65;3.60;;;11.70;99.90;;;;;;5062086;28;38968;-76
2022/04/06 11:14:58;;;;;;;7.25;3.80;;;11.60;99.90;;;;;;5058705;28;38349;-76
2022/04/06 11:17:32;;;;;;;10.70;4.00;;;11.60;99.90;;;;;;5070242;28;38534;-76
2022/04/06 11:19:59;;;;;;;8.98;3.47;;;11.60;99.90;;;;;;5037997;28;39542;-76
2022/04/06 11:22:26;;;;;;;8.65;3.63;;;11.60;99.90;;;;;;5064618;28;39226;-77
2022/04/06 11:24:54;;;;;;;14.02;4.30;;;11.50;99.90;;;;;;5062365;28;38120;-77
2022/04/06 11:27:34;;;;;;;11.25;3.92;;;11.60;99.90;;;;;;5063245;28;37317;-76
2022/04/06 11:30:05;;;;;;;12.88;4.28;;;11.70;99.90;;;;;;5060136;28;39445;-76
2022/04/06 11:32:33;;;;;;;10.75;3.47;;;11.80;99.90;;;;;;5043614;28;47354;-76
2022/04/06 11:35:10;;;;;;;12.05;3.97;;;11.80;99.90;;;;;;5044507;28;38493;-77
2022/04/06 11:37:48;;;;;;;8.23;3.40;;;11.60;99.90;;;;;;5057939;28;49042;-77
2022/04/06 11:40:21;;;;;;;15.20;3.53;;;11.50;99.90;;;;;;5058161;28;38789;-77
2022/04/06 11:42:49;;;;;;;6.80;2.92;;;11.40;99.90;;;;;;5063393;28;36983;-77
2022/04/06 11:45:27;;;;;;;10.13;3.00;;;11.50;99.90;;;;;;5061003;28;37587;-79
2022/04/06 11:47:57;;;;;;;8.73;3.10;;;11.30;99.90;;;;;;5077167;28;37898;-77
2022/04/06 11:50:31;;;;;;;7.75;2.78;;;11.30;99.90;;;;;;5059607;28;39246;-77
2022/04/06 11:53:18;;;;;;;12.40;4.00;;;11.20;99.90;;;;;;5083320;28;39261;-76
2022/04/06 11:55:48;;;;;;;6.93;2.88;;;11.00;99.90;;;;;;5063181;28;47317;-78
2022/04/06 11:58:30;;;;;;;12.82;3.83;;;11.00;99.90;;;;;;5062511;28;37338;-76
2022/04/06 12:01:06;;;;;;;8.52;3.80;;;10.80;99.90;;;;;;5066231;28;39852;-76
2022/04/06 12:03:37;;;;;;;9.70;4.32;;;10.70;99.90;;;;;;5046172;28;49008;-76
2022/04/06 12:06:11;;;;;;;13.67;5.30;;;10.60;99.90;;;;;;5038959;28;37999;-76
2022/04/06 12:08:39;;;;;;;10.53;6.00;;;10.60;99.90;;;;;;5074018;28;39052;-77
2022/04/06 12:11:05;;;;;;;9.27;4.97;;;10.60;99.90;;;;;;5042955;28;38802;-77
2022/04/06 12:13:34;;;;;;;15.63;4.53;;;10.60;99.90;;;;;;5051765;28;38045;-76
2022/04/06 12:16:02;;;;;;;7.22;3.75;;;10.60;99.90;;;;;;5044736;28;39251;-77
2022/04/06 12:18:29;;;;;;;10.88;3.92;;;10.60;99.90;;;;;;5053371;28;51002;-77
2022/04/06 12:20:55;;;;;;;11.37;4.40;;;10.60;99.90;;;;;;5063376;28;38185;-77
2022/04/06 12:23:26;;;;;;;7.70;3.72;;;10.80;99.90;;;;;;5082488;28;38212;-77
2022/04/06 12:25:59;;;;;;;6.68;3.33;;;10.80;99.90;;;;;;5064101;28;37584;-76
2022/04/06 12:28:27;;;;;;;7.18;3.50;;;10.90;99.90;;;;;;5061275;28;37634;-77
2022/04/06 12:31:07;;;;;;;7.82;3.88;;;11.00;99.90;;;;;;5061590;28;41010;-77
2022/04/06 12:33:44;;;;;;;6.20;3.13;;;11.10;99.90;;;;;;5063179;28;48592;-76
2022/04/06 12:36:19;;;;;;;7.88;3.50;;;11.10;99.90;;;;;;5078845;28;38410;-77
2022/04/06 12:39:15;;;;;;;9.68;4.03;;;11.20;99.90;;;;;;5079239;28;37653;-77
2022/04/06 12:41:59;;;;;;;6.18;3.00;;;11.20;99.90;;;;;;5065153;28;47107;-77
2022/04/06 12:44:26;;;;;;;5.45;3.13;;;11.30;99.90;;;;;;5079939;28;39970;-77
2022/04/06 12:46:53;;;;;;;7.47;3.30;;;11.30;99.90;;;;;;5064834;28;37428;-76
2022/04/06 12:49:42;;;;;;;4.07;2.85;;;11.30;99.90;;;;;;5077314;28;38694;-77
2022/04/06 12:52:14;;;;;;;12.85;3.08;;;11.30;99.90;;;;;;5061011;28;38204;-77
2022/04/06 12:54:42;;;;;;;7.95;2.80;;;11.30;99.90;;;;;;5073979;28;39888;-77
2022/04/06 12:57:19;;;;;;;7.35;3.03;;;11.30;99.90;;;;;;5070420;28;39500;-77
2022/04/06 13:00:10;;;;;;;5.13;3.33;;;11.30;99.90;;;;;;5064117;28;37790;-76
2022/04/06 13:02:46;;;;;;;9.07;3.50;;;11.20;99.90;;;;;;5070792;28;48300;-77